createdAt,value
2023-04-02T00:01:00.857Z,100147.06
2023-04-02T00:04:05.692Z,100150.69
2023-04-02T00:06:34.821Z,100114.38
2023-04-02T00:09:23.075Z,100133.59
2023-04-02T00:11:55.735Z,100166.03
2023-04-02T00:14:31.240Z,100167.94
2023-04-02T00:17:00.166Z,100160.78
2023-04-02T00:19:47.174Z,100177.25
2023-04-02T00:22:19.668Z,100184.56
2023-04-02T00:24:46.912Z,100168.81
2023-04-02T00:27:14.785Z,100193.47
2023-04-02T00:29:52.781Z,100200.69
2023-04-02T00:32:28.735Z,100171.72
2023-04-02T00:34:55.856Z,100204.75
2023-04-02T00:37:25.132Z,100187.28
2023-04-02T00:40:07.100Z,100200.63
2023-04-02T00:42:35.337Z,100227.44
2023-04-02T00:45:02.348Z,100204.81
2023-04-02T00:47:33.683Z,100222.09
2023-04-02T00:50:03.445Z,100239.19
2023-04-02T00:52:31.963Z,100213.91
2023-04-02T00:55:24.889Z,100251.63
2023-04-02T00:57:51.991Z,100242.50
2023-04-02T01:00:29.283Z,100261.47
2023-04-02T01:03:28.962Z,100267.31
2023-04-02T01:06:10.814Z,100262.34
2023-04-02T01:08:59.321Z,100282.41
2023-04-02T01:11:44.653Z,100280.13
2023-04-02T01:14:26.404Z,100295.25
2023-04-02T01:17:18.447Z,100290.84
2023-04-02T01:19:58.492Z,100272.69
2023-04-02T01:22:35.164Z,100305.81
2023-04-02T01:25:04.566Z,100284.19
2023-04-02T01:27:58.712Z,100311.13
2023-04-02T01:30:25.607Z,100315.59
2023-04-02T01:32:52.773Z,100296.31
2023-04-02T01:35:19.544Z,100325.22
2023-04-02T01:37:49.879Z,100325.91
2023-04-02T01:40:19.538Z,100338.03
2023-04-02T01:43:07.897Z,100338.53
2023-04-02T01:45:35.574Z,100318.03
2023-04-02T01:48:09.264Z,100355.00
2023-04-02T01:50:37.979Z,100360.19
2023-04-02T01:53:07.473Z,100291.38
2023-04-02T01:55:43.015Z,100360.13
2023-04-02T01:58:11.441Z,100364.00
2023-04-02T02:00:45.760Z,100379.78
2023-04-02T02:03:13.007Z,100319.91
2023-04-02T02:05:40.222Z,100382.16
2023-04-02T02:08:17.066Z,100369.66
2023-04-02T02:10:43.587Z,100400.28
2023-04-02T02:13:15.937Z,100402.38
2023-04-02T02:15:42.492Z,100391.44
2023-04-02T02:18:11.330Z,100386.19
2023-04-02T02:20:37.848Z,100417.53
2023-04-02T02:23:05.542Z,100396.94
2023-04-02T02:25:34.392Z,100406.69
2023-04-02T02:28:21.871Z,100421.97
2023-04-02T02:30:52.832Z,100427.72
2023-04-02T02:33:29.280Z,100431.19
2023-04-02T02:36:16.572Z,100417.75
2023-04-02T02:38:54.643Z,100406.88
2023-04-02T02:41:24.583Z,100458.78
2023-04-02T02:44:12.976Z,100448.31
2023-04-02T02:46:44.344Z,100418.88
2023-04-02T02:49:16.015Z,100431.56
2023-04-02T02:52:03.985Z,100468.16
2023-04-02T02:54:31.658Z,100429.06
2023-04-02T02:57:01.819Z,100482.09
2023-04-02T02:59:29.932Z,100487.16
2023-04-02T03:01:57.023Z,100452.03
2023-04-02T03:04:24.288Z,100496.72
2023-04-02T03:06:57.010Z,100349.53
2023-04-02T03:09:33.453Z,100501.84
2023-04-02T03:12:06.619Z,100501.41
2023-04-02T03:14:37.099Z,100515.78
2023-04-02T03:17:10.345Z,100495.50
2023-04-02T03:20:06.422Z,100520.84
2023-04-02T03:22:43.991Z,100503.13
2023-04-02T03:25:30.936Z,100538.78
2023-04-02T03:28:05.005Z,100545.31
2023-04-02T03:30:44.745Z,100551.94
2023-04-02T03:33:23.136Z,100534.59
2023-04-02T03:36:21.203Z,100560.16
2023-04-02T03:38:55.618Z,100528.53
2023-04-02T03:41:28.173Z,100571.13
2023-04-02T03:43:58.655Z,100579.59
2023-04-02T03:46:46.290Z,100554.22
2023-04-02T03:49:19.437Z,100565.53
2023-04-02T03:52:01.040Z,100565.47
2023-04-02T03:54:28.422Z,100596.53
2023-04-02T03:56:55.073Z,100613.97
2023-04-02T03:59:47.524Z,100577.56
2023-04-02T04:02:26.391Z,100613.53
2023-04-02T04:04:54.720Z,100629.28
2023-04-02T04:07:34.731Z,100605.75
2023-04-02T04:10:02.382Z,100599.81
2023-04-02T04:12:32.860Z,100644.31
2023-04-02T04:15:28.565Z,100629.13
2023-04-02T04:18:13.835Z,100511.34
2023-04-02T04:20:42.094Z,100662.53
2023-04-02T04:23:22.282Z,100657.97
2023-04-02T04:25:57.646Z,100666.06
2023-04-02T04:28:31.209Z,100679.00
2023-04-02T04:31:01.138Z,100666.69
2023-04-02T04:33:43.720Z,100677.06
2023-04-02T04:36:27.852Z,100694.47
2023-04-02T04:38:59.514Z,100670.13
2023-04-02T04:41:30.694Z,100671.66
2023-04-02T04:44:01.465Z,100683.69
2023-04-02T04:47:08.208Z,100699.31
2023-04-02T04:49:45.677Z,100724.88
2023-04-02T04:52:18.598Z,100699.13
2023-04-02T04:54:45.999Z,100733.88
2023-04-02T04:57:42.189Z,100741.06
2023-04-02T05:00:20.695Z,100715.38
2023-04-02T05:02:52.024Z,100728.09
2023-04-02T05:05:24.652Z,100728.75
2023-04-02T05:07:59.108Z,100768.66
2023-04-02T05:10:51.816Z,100772.00
2023-04-02T05:13:25.685Z,100778.28
2023-04-02T05:16:05.643Z,100789.66
2023-04-02T05:18:51.353Z,100781.03
2023-04-02T05:21:37.900Z,100782.09
2023-04-02T05:24:35.887Z,100808.00
2023-04-02T05:27:09.515Z,100819.31
2023-04-02T05:29:38.846Z,100819.13
2023-04-02T05:32:28.564Z,100830.25
2023-04-02T05:34:57.399Z,100806.09
2023-04-02T05:37:27.454Z,100837.72
2023-04-02T05:39:56.674Z,100841.53
2023-04-02T05:42:25.650Z,100831.53
2023-04-02T05:45:27.793Z,100871.38
2023-04-02T05:48:01.807Z,100862.66
2023-04-02T05:50:37.520Z,100877.09
2023-04-02T05:53:12.590Z,100880.38
2023-04-02T05:55:51.444Z,100871.00
2023-04-02T05:58:37.322Z,100886.25
2023-04-02T06:01:29.545Z,100889.19
2023-04-02T06:04:23.693Z,100886.69
2023-04-02T06:06:59.569Z,100870.22
2023-04-02T06:09:43.192Z,100900.56
2023-04-02T06:12:21.823Z,100909.41
2023-04-02T06:14:48.528Z,100889.66
2023-04-02T06:17:17.050Z,100929.59
2023-04-02T06:19:43.847Z,100900.66
2023-04-02T06:22:30.910Z,100926.41
2023-04-02T06:25:22.820Z,100938.97
2023-04-02T06:27:50.623Z,100927.16
2023-04-02T06:30:19.690Z,100952.06
2023-04-02T06:32:46.152Z,100964.06
2023-04-02T06:35:14.084Z,100951.25
2023-04-02T06:37:43.445Z,100970.25
2023-04-02T06:40:28.414Z,100976.16
2023-04-02T06:42:59.624Z,100969.72
2023-04-02T06:45:30.298Z,101004.41
2023-04-02T06:47:57.952Z,100993.94
2023-04-02T06:50:46.366Z,100989.28
2023-04-02T06:53:29.166Z,100998.47
2023-04-02T06:56:34.857Z,100999.47
2023-04-02T06:59:04.427Z,101020.81
2023-04-02T07:01:32.659Z,101027.50
2023-04-02T07:03:59.669Z,101030.03
2023-04-02T07:06:26.195Z,101022.44
2023-04-02T07:08:52.759Z,101009.53
2023-04-02T07:11:21.608Z,101053.91
2023-04-02T07:13:49.357Z,101049.25
2023-04-02T07:16:21.137Z,101061.13
2023-04-02T07:18:48.705Z,101057.66
2023-04-02T07:21:15.554Z,101069.66
2023-04-02T07:23:42.063Z,101075.50
2023-04-02T07:26:13.970Z,101050.88
2023-04-02T07:28:40.828Z,101092.72
2023-04-02T07:31:19.137Z,101048.72
2023-04-02T07:33:46.021Z,101110.34
2023-04-02T07:36:17.986Z,101104.06
2023-04-02T07:38:44.746Z,101110.66
2023-04-02T07:41:11.593Z,101090.66
2023-04-02T07:43:38.780Z,101117.34
2023-04-02T07:46:06.407Z,101120.53
2023-04-02T07:48:33.044Z,101107.13
2023-04-02T07:51:00.488Z,101133.06
2023-04-02T07:53:34.629Z,101144.56
2023-04-02T07:56:02.937Z,101145.41
2023-04-02T07:58:31.987Z,101142.53
2023-04-02T08:00:59.032Z,101151.28
2023-04-02T08:03:25.728Z,101173.34
2023-04-02T08:05:54.702Z,101156.16
2023-04-02T08:08:22.945Z,101137.25
2023-04-02T08:10:50.322Z,101176.88
2023-04-02T08:13:18.166Z,101178.53
2023-04-02T08:15:44.766Z,101175.31
2023-04-02T08:18:12.033Z,101188.81
2023-04-02T08:20:38.679Z,101192.03
2023-04-02T08:23:06.987Z,101178.06
2023-04-02T08:26:17.031Z,101184.63
2023-04-02T08:29:24.665Z,101180.13
2023-04-02T08:32:31.940Z,101213.44
2023-04-02T08:35:39.587Z,101184.31
2023-04-02T08:38:47.062Z,101229.81
2023-04-02T08:42:03.337Z,101237.59
2023-04-02T08:45:52.240Z,101254.81
2023-04-02T08:49:01.972Z,101227.63
2023-04-02T08:52:25.610Z,101244.31
2023-04-02T08:55:36.190Z,101129.22
2023-04-02T08:58:47.449Z,101257.56
2023-04-02T09:02:00.711Z,101263.53
2023-04-02T09:05:20.676Z,101157.59
2023-04-02T09:08:29.911Z,101140.91
2023-04-02T09:11:41.180Z,101282.59
2023-04-02T09:14:54.335Z,101280.47
2023-04-02T09:18:16.471Z,101276.28
2023-04-02T09:21:32.910Z,101288.75
2023-04-02T09:24:40.056Z,101281.88
2023-04-02T09:27:50.176Z,101307.84
2023-04-02T09:31:02.097Z,101299.69
2023-04-02T09:34:29.686Z,101326.09
2023-04-02T09:37:37.346Z,101326.38
2023-04-02T09:40:53.593Z,101333.63
2023-04-02T09:44:32.027Z,101337.66
2023-04-02T09:47:40.928Z,101339.16
2023-04-02T09:50:49.650Z,101337.06
2023-04-02T09:54:03.120Z,101355.94
2023-04-02T09:57:28.001Z,101367.88
2023-04-02T10:00:35.438Z,101370.28
2023-04-02T10:03:43.000Z,101354.94
2023-04-02T10:06:50.770Z,101354.97
2023-04-02T10:09:59.331Z,101376.22
2023-04-02T10:13:29.433Z,101373.72
2023-04-02T10:16:42.442Z,101391.38
2023-04-02T10:19:52.558Z,101384.25
2023-04-02T10:22:59.863Z,101383.97
2023-04-02T10:26:37.924Z,101388.56
2023-04-02T10:30:11.265Z,101416.19
2023-04-02T10:33:25.397Z,101404.53
2023-04-02T10:36:55.358Z,101427.13
2023-04-02T10:40:32.459Z,101440.81
2023-04-02T10:44:03.627Z,101441.97
2023-04-02T10:47:33.468Z,101452.06
2023-04-02T10:50:51.763Z,101450.97
2023-04-02T10:54:28.326Z,101462.41
2023-04-02T10:57:40.706Z,101418.44
2023-04-02T11:00:50.676Z,101433.97
2023-04-02T11:04:05.980Z,101436.47
2023-04-02T11:07:20.633Z,101470.13
2023-04-02T11:10:30.679Z,101450.19
2023-04-02T11:13:57.483Z,101467.59
2023-04-02T11:17:04.654Z,101468.63
2023-04-02T11:20:49.056Z,101485.72
2023-04-02T11:24:06.219Z,101486.63
2023-04-02T11:27:16.446Z,101481.88
2023-04-02T11:30:26.190Z,101492.28
2023-04-02T11:33:44.688Z,101487.09
2023-04-02T11:36:53.773Z,101506.25
2023-04-02T11:40:10.984Z,101504.13
2023-04-02T11:43:34.695Z,101522.69
2023-04-02T11:46:42.868Z,101521.28
2023-04-02T11:50:01.529Z,101533.16
2023-04-02T11:53:11.898Z,101543.78
2023-04-02T11:57:00.828Z,101547.63
2023-04-02T12:00:32.838Z,101552.06
2023-04-02T12:04:01.567Z,101561.19
2023-04-02T12:07:27.943Z,101535.41
2023-04-02T12:10:58.844Z,101560.94
2023-04-02T12:14:45.818Z,101562.59
2023-04-02T12:17:53.466Z,101556.38
2023-04-02T12:21:01.245Z,101573.56
2023-04-02T12:24:24.056Z,101544.53
2023-04-02T12:27:31.643Z,101538.94
2023-04-02T12:30:38.903Z,101569.63
2023-04-02T12:33:46.280Z,101547.81
2023-04-02T12:37:02.648Z,101583.00
2023-04-02T12:40:17.250Z,101557.53
2023-04-02T12:43:29.593Z,101583.69
2023-04-02T12:46:36.915Z,101532.31
2023-04-02T12:49:44.811Z,101572.66
2023-04-02T12:52:54.801Z,101547.94
2023-04-02T12:56:02.840Z,101580.44
2023-04-02T12:59:36.006Z,101577.41
2023-04-02T13:02:45.255Z,101564.44
2023-04-02T13:05:57.009Z,101568.22
2023-04-02T13:09:06.655Z,101587.34
2023-04-02T13:12:32.656Z,101580.81
2023-04-02T13:15:39.805Z,101595.19
2023-04-02T13:18:48.961Z,101576.06
2023-04-02T13:21:57.643Z,101600.72
2023-04-02T13:25:04.965Z,101613.81
2023-04-02T13:28:12.169Z,101587.63
2023-04-02T13:31:19.351Z,101621.03
2023-04-02T13:34:27.763Z,101604.34
2023-04-02T13:37:35.200Z,101556.75
2023-04-02T13:40:42.461Z,101602.34
2023-04-02T13:43:50.758Z,101602.47
2023-04-02T13:46:59.942Z,101615.06
2023-04-02T13:50:08.365Z,101614.16
2023-04-02T13:53:22.533Z,101605.25
2023-04-02T13:56:29.740Z,101587.03
2023-04-02T13:59:36.938Z,101619.69
2023-04-02T14:02:51.786Z,101611.50
2023-04-02T14:06:21.717Z,101593.50
2023-04-02T14:09:41.020Z,101640.41
2023-04-02T14:13:10.138Z,101631.47
2023-04-02T14:16:48.266Z,101639.00
2023-04-02T14:20:34.960Z,101628.03
2023-04-02T14:23:54.698Z,101643.50
2023-04-02T14:27:03.059Z,101645.75
2023-04-02T14:30:21.927Z,101623.25
2023-04-02T14:33:48.412Z,101655.13
2023-04-02T14:37:01.504Z,101658.56
2023-04-02T14:40:19.701Z,101659.38
2023-04-02T14:43:31.865Z,101638.66
2023-04-02T14:46:42.447Z,101635.72
2023-04-02T14:49:54.693Z,101675.13
2023-04-02T14:53:07.602Z,101686.28
2023-04-02T14:56:16.146Z,101549.84
2023-04-02T14:59:31.184Z,101671.72
2023-04-02T15:02:46.490Z,101662.13
2023-04-02T15:06:03.349Z,101696.78
2023-04-02T15:09:15.665Z,101687.91
2023-04-02T15:12:27.007Z,101675.66
2023-04-02T15:15:40.423Z,101686.78
2023-04-02T15:18:58.635Z,101693.50
2023-04-02T15:22:27.636Z,101703.25
2023-04-02T15:26:18.158Z,101705.63
2023-04-02T15:29:47.477Z,101720.91
2023-04-02T15:32:57.725Z,101714.03
2023-04-02T15:36:21.415Z,101721.19
2023-04-02T15:39:37.541Z,101722.31
2023-04-02T15:42:57.386Z,101713.97
2023-04-02T15:46:40.012Z,101737.94
2023-04-02T15:49:58.250Z,101733.22
2023-04-02T15:53:33.042Z,101739.09
2023-04-02T15:56:43.900Z,101748.78
2023-04-02T16:00:28.212Z,101718.56
2023-04-02T16:03:50.530Z,101757.22
2023-04-02T16:07:14.297Z,101758.13
2023-04-02T16:10:45.912Z,101743.84
2023-04-02T16:14:04.118Z,101643.56
2023-04-02T16:17:34.197Z,101752.16
2023-04-02T16:20:46.639Z,101767.22
2023-04-02T16:23:53.813Z,101754.31
2023-04-02T16:27:17.427Z,101728.66
2023-04-02T16:30:41.799Z,101738.19
2023-04-02T16:34:07.349Z,101791.78
2023-04-02T16:37:35.511Z,101773.44
2023-04-02T16:41:08.673Z,101799.34
2023-04-02T16:44:19.306Z,101676.38
2023-04-02T16:48:06.495Z,101790.13
2023-04-02T16:51:16.368Z,101815.19
2023-04-02T16:54:48.331Z,101824.53
2023-04-02T16:58:02.199Z,101810.22
2023-04-02T17:01:12.336Z,101839.78
2023-04-02T17:04:28.776Z,101837.19
2023-04-02T17:07:44.343Z,101810.94
2023-04-02T17:11:01.686Z,101837.84
2023-04-02T17:14:20.313Z,101842.66
2023-04-02T17:17:27.749Z,101838.84
2023-04-02T17:20:35.177Z,101833.50
2023-04-02T17:24:02.601Z,101830.97
2023-04-02T17:27:37.759Z,101824.97
2023-04-02T17:30:48.102Z,101867.91
2023-04-02T17:33:55.520Z,101870.56
2023-04-02T17:37:18.517Z,101859.97
2023-04-02T17:40:43.660Z,101839.88
2023-04-02T17:44:28.401Z,101880.56
2023-04-02T17:47:43.129Z,101865.00
2023-04-02T17:50:56.081Z,101883.69
2023-04-02T17:54:12.530Z,101894.72
2023-04-02T17:57:32.257Z,101894.84
2023-04-02T18:00:45.775Z,101899.47
2023-04-02T18:03:54.810Z,101887.75
2023-04-02T18:07:12.813Z,101897.16
2023-04-02T18:10:25.385Z,101906.38
2023-04-02T18:13:07.774Z,101901.69
2023-04-02T18:15:47.850Z,101903.13
2023-04-02T18:18:36.321Z,101910.66
2023-04-02T18:21:37.690Z,101911.59
2023-04-02T18:24:42.699Z,101916.47
2023-04-02T18:27:34.606Z,101929.56
2023-04-02T18:30:41.175Z,101924.88
2023-04-02T18:33:19.857Z,101907.44
2023-04-02T18:36:19.465Z,101877.38
2023-04-02T18:38:58.941Z,101929.38
2023-04-02T18:41:46.222Z,101936.41
2023-04-02T18:44:38.679Z,101940.41
2023-04-02T18:47:27.517Z,101937.84
2023-04-02T18:50:18.733Z,101945.69
2023-04-02T18:52:46.120Z,101841.53
2023-04-02T18:55:18.089Z,101916.72
2023-04-02T18:57:46.477Z,101940.75
2023-04-02T19:00:27.313Z,101954.19
2023-04-02T19:03:06.044Z,101957.59
2023-04-02T19:05:35.759Z,101971.63
2023-04-02T19:08:24.708Z,101966.94
2023-04-02T19:10:54.654Z,101970.00
2023-04-02T19:13:21.536Z,101943.88
2023-04-02T19:15:54.330Z,101972.69
2023-04-02T19:18:35.495Z,101973.72
2023-04-02T19:21:24.831Z,101941.25
2023-04-02T19:24:13.101Z,101982.69
2023-04-02T19:26:49.589Z,101960.25
2023-04-02T19:29:19.598Z,101981.31
2023-04-02T19:32:21.134Z,101975.06
2023-04-02T19:35:13.611Z,101994.84
2023-04-02T19:37:43.301Z,101970.47
2023-04-02T19:40:51.648Z,101999.34
2023-04-02T19:43:18.401Z,102004.34
2023-04-02T19:45:47.837Z,101964.59
2023-04-02T19:48:21.768Z,102008.78
2023-04-02T19:50:48.864Z,102006.22
2023-04-02T19:53:15.618Z,102002.22
2023-04-02T19:55:43.121Z,102006.66
2023-04-02T19:58:23.305Z,102014.00
2023-04-02T20:00:50.261Z,102009.78
2023-04-02T20:03:16.780Z,102001.53
2023-04-02T20:05:43.545Z,101993.13
2023-04-02T20:08:11.004Z,102007.22
2023-04-02T20:10:37.985Z,102020.41
2023-04-02T20:13:04.727Z,102023.13
2023-04-02T20:15:31.259Z,101999.28
2023-04-02T20:17:58.041Z,102017.75
2023-04-02T20:20:24.540Z,102008.94
2023-04-02T20:22:51.128Z,102017.91
2023-04-02T20:25:17.884Z,102032.53
2023-04-02T20:27:44.365Z,102025.38
2023-04-02T20:30:11.393Z,102031.94
2023-04-02T20:32:38.346Z,102045.16
2023-04-02T20:35:05.982Z,102031.16
2023-04-02T20:37:32.767Z,102044.09
2023-04-02T20:39:59.437Z,102036.81
2023-04-02T20:42:26.348Z,102058.28
2023-04-02T20:44:52.855Z,102047.56
2023-04-02T20:47:19.428Z,102067.94
2023-04-02T20:49:45.939Z,102045.09
2023-04-02T20:52:12.450Z,102059.75
2023-04-02T20:54:38.918Z,102073.25
2023-04-02T20:57:05.479Z,102056.31
2023-04-02T20:59:32.048Z,102077.25
2023-04-02T21:01:58.598Z,102056.50
2023-04-02T21:04:25.714Z,102082.41
2023-04-02T21:06:56.837Z,102050.22
2023-04-02T21:09:23.965Z,102081.19
2023-04-02T21:11:50.585Z,102067.88
2023-04-02T21:14:17.784Z,102051.66
2023-04-02T21:16:44.715Z,102092.53
2023-04-02T21:19:11.784Z,102081.97
2023-04-02T21:21:39.336Z,102096.16
2023-04-02T21:24:08.479Z,102091.63
2023-04-02T21:26:38.209Z,102096.19
2023-04-02T21:29:06.057Z,102093.13
2023-04-02T21:31:37.535Z,102067.63
2023-04-02T21:34:06.018Z,102053.63
2023-04-02T21:36:34.833Z,102102.16
2023-04-02T21:39:24.117Z,102102.25
2023-04-02T21:41:53.131Z,102099.72
2023-04-02T21:44:22.142Z,102086.13
2023-04-02T21:46:51.821Z,102100.69
2023-04-02T21:49:21.951Z,102074.53
2023-04-02T21:51:49.172Z,102097.50
2023-04-02T21:54:16.736Z,102090.28
2023-04-02T21:56:45.194Z,102085.81
2023-04-02T21:59:13.624Z,102105.81
2023-04-02T22:01:42.334Z,102058.91
2023-04-02T22:04:09.848Z,102077.69
2023-04-02T22:06:39.421Z,102095.88
2023-04-02T22:09:12.427Z,102113.28
2023-04-02T22:11:43.224Z,102118.28
2023-04-02T22:14:10.049Z,102121.75
2023-04-02T22:16:37.387Z,102116.47
2023-04-02T22:19:08.945Z,102117.13
2023-04-02T22:21:36.531Z,102123.84
2023-04-02T22:24:06.109Z,102130.91
2023-04-02T22:26:33.479Z,102132.53
2023-04-02T22:29:00.630Z,102131.88
2023-04-02T22:31:29.849Z,102135.66
2023-04-02T22:33:57.611Z,102135.72
2023-04-02T22:36:25.806Z,102131.25
2023-04-02T22:38:52.577Z,102145.03
2023-04-02T22:41:22.013Z,102090.00
2023-04-02T22:43:49.259Z,102158.69
2023-04-02T22:46:17.113Z,102164.09
2023-04-02T22:48:44.416Z,102168.56
2023-04-02T22:51:12.854Z,102174.97
2023-04-02T22:53:39.789Z,102175.06
2023-04-02T22:56:07.839Z,102176.88
2023-04-02T22:58:34.842Z,102178.41
2023-04-02T23:01:11.924Z,102178.16
2023-04-02T23:03:38.586Z,102144.22
2023-04-02T23:06:08.877Z,102175.63
2023-04-02T23:08:36.755Z,102184.16
2023-04-02T23:11:17.953Z,102190.09
2023-04-02T23:13:46.847Z,102189.34
2023-04-02T23:16:14.319Z,102160.84
2023-04-02T23:18:42.796Z,102182.69
2023-04-02T23:21:09.551Z,102174.59
2023-04-02T23:23:36.757Z,102191.69
2023-04-02T23:26:06.273Z,102188.25
2023-04-02T23:28:33.152Z,102192.38
2023-04-02T23:31:01.745Z,102166.03
2023-04-02T23:33:28.257Z,102194.34
2023-04-02T23:35:54.844Z,102175.06
2023-04-02T23:38:21.534Z,102203.72
2023-04-02T23:40:48.025Z,102198.31
2023-04-02T23:43:14.551Z,102198.59
2023-04-02T23:45:41.376Z,102201.75
2023-04-02T23:48:07.981Z,102199.84
2023-04-02T23:50:35.283Z,102201.94
2023-04-02T23:53:01.979Z,102165.66
2023-04-02T23:55:28.481Z,102187.28
2023-04-02T23:57:54.993Z,102200.31
